createdAt,value
2023-02-02T00:01:35.562Z,7.98
2023-02-02T00:04:04.474Z,8.65
2023-02-02T00:06:34.379Z,6.99
2023-02-02T00:09:03.849Z,5.82
2023-02-02T00:11:32.987Z,7.50
2023-02-02T00:14:01.287Z,8.32
2023-02-02T00:16:30.171Z,8.16
2023-02-02T00:19:00.905Z,6.19
2023-02-02T00:21:29.660Z,6.23
2023-02-02T00:28:43.581Z,8.29
2023-02-02T00:31:12.634Z,7.47
2023-02-02T00:38:25.460Z,7.51
2023-02-02T00:40:54.352Z,7.58
2023-02-02T00:43:22.676Z,7.55
2023-02-02T00:45:51.058Z,7.96
2023-02-02T00:48:19.201Z,6.46
2023-02-02T00:50:47.478Z,5.63
2023-02-02T00:53:15.572Z,7.09
2023-02-02T00:55:44.709Z,7.82
2023-02-02T00:58:13.510Z,7.96
2023-02-02T01:00:42.420Z,8.28
2023-02-02T01:03:12.210Z,6.47
2023-02-02T01:05:40.501Z,6.06
2023-02-02T01:08:08.703Z,7.25
2023-02-02T01:10:37.237Z,8.01
2023-02-02T01:13:05.408Z,7.80
2023-02-02T01:15:33.366Z,5.98
2023-02-02T01:18:01.651Z,6.40
2023-02-02T01:20:32.011Z,7.27
2023-02-02T01:23:00.621Z,8.10
2023-02-02T01:25:30.730Z,6.80
2023-02-02T01:27:59.282Z,6.13
2023-02-02T01:30:30.304Z,6.73
2023-02-02T01:32:58.713Z,7.93
2023-02-02T01:35:27.071Z,8.26
2023-02-02T01:37:56.108Z,6.55
2023-02-02T01:40:24.283Z,6.28
2023-02-02T01:42:52.354Z,6.92
2023-02-02T01:45:30.387Z,7.63
2023-02-02T01:48:00.506Z,8.28
2023-02-02T01:50:33.416Z,6.95
2023-02-02T01:53:04.898Z,5.95
2023-02-02T01:55:36.840Z,7.02
2023-02-02T01:58:11.572Z,7.44
2023-02-02T02:00:42.268Z,8.06
2023-02-02T02:03:20.570Z,8.22
2023-02-02T02:05:54.136Z,7.95
2023-02-02T02:08:27.682Z,6.35
2023-02-02T02:10:55.912Z,7.52
2023-02-02T02:13:47.574Z,8.25
2023-02-02T02:16:44.116Z,6.87
2023-02-02T02:20:06.034Z,6.06
2023-02-02T02:23:27.859Z,7.40
2023-02-02T02:26:52.545Z,8.46
2023-02-02T02:29:46.619Z,7.34
2023-02-02T02:32:30.237Z,6.13
2023-02-02T02:35:20.895Z,7.67
2023-02-02T02:38:02.529Z,8.44
2023-02-02T02:40:47.717Z,6.73
2023-02-02T02:43:27.410Z,6.58
2023-02-02T02:50:11.084Z,8.49
2023-02-02T02:52:40.659Z,8.12
2023-02-02T02:55:11.058Z,6.28
2023-02-02T02:57:52.924Z,5.98
2023-02-02T03:00:23.688Z,7.62
2023-02-02T03:03:02.769Z,8.59
2023-02-02T03:06:00.124Z,7.42
2023-02-02T03:08:53.883Z,6.37
2023-02-02T03:11:22.303Z,7.73
2023-02-02T03:13:50.510Z,8.31
2023-02-02T03:16:18.474Z,6.54
2023-02-02T03:18:46.537Z,6.80
2023-02-02T03:21:42.183Z,7.66
2023-02-02T03:24:10.345Z,8.31
2023-02-02T03:26:38.370Z,7.44
2023-02-02T03:29:32.975Z,6.33
2023-02-02T03:32:01.151Z,7.88
2023-02-02T03:34:29.301Z,8.02
2023-02-02T03:37:49.063Z,6.45
2023-02-02T03:40:17.332Z,7.12
2023-02-02T03:42:45.402Z,8.08
2023-02-02T03:45:13.982Z,8.53
2023-02-02T03:47:42.396Z,7.51
2023-02-02T03:50:12.245Z,6.34
2023-02-02T03:52:40.390Z,7.31
2023-02-02T03:59:54.293Z,6.82
2023-02-02T04:02:22.485Z,6.36
2023-02-02T04:04:50.617Z,7.63
2023-02-02T04:07:18.669Z,8.40
2023-02-02T04:09:46.625Z,8.63
2023-02-02T04:12:14.535Z,7.49
2023-02-02T04:15:36.015Z,6.48
2023-02-02T04:18:04.290Z,7.56
2023-02-02T04:20:32.259Z,8.16
2023-02-02T04:23:00.331Z,8.57
2023-02-02T04:25:28.287Z,7.47
2023-02-02T04:27:56.323Z,6.23
2023-02-02T04:30:24.429Z,7.09
2023-02-02T04:34:11.939Z,8.02
2023-02-02T04:36:40.021Z,7.11
2023-02-02T04:43:54.207Z,7.85
2023-02-02T04:46:22.450Z,8.17
2023-02-02T04:48:50.429Z,8.85
2023-02-02T04:51:44.262Z,8.22
2023-02-02T04:54:12.213Z,6.35
2023-02-02T04:56:40.132Z,7.20
2023-02-02T04:59:08.163Z,8.26
2023-02-02T05:01:37.081Z,8.70
2023-02-02T05:04:06.212Z,7.67
2023-02-02T05:06:34.362Z,6.06
2023-02-02T05:09:02.326Z,6.45
2023-02-02T05:11:31.202Z,7.90
2023-02-02T05:13:59.138Z,8.87
2023-02-02T05:16:29.152Z,8.03
2023-02-02T05:18:59.695Z,6.36
2023-02-02T05:21:27.869Z,7.10
2023-02-02T05:23:56.432Z,8.29
2023-02-02T05:26:27.310Z,8.51
2023-02-02T05:28:56.965Z,6.54
2023-02-02T05:31:25.052Z,6.81
2023-02-02T05:33:52.996Z,7.97
2023-02-02T05:36:20.874Z,8.42
2023-02-02T05:38:48.757Z,6.84
2023-02-02T05:41:16.768Z,5.82
2023-02-02T05:43:45.130Z,7.46
2023-02-02T05:46:13.548Z,8.59
2023-02-02T05:48:42.170Z,7.64
2023-02-02T05:51:33.523Z,6.27
2023-02-02T05:54:01.352Z,7.37
2023-02-02T05:56:29.310Z,8.61
2023-02-02T05:58:57.289Z,7.52
2023-02-02T06:01:25.334Z,6.02
2023-02-02T06:03:53.428Z,6.68
2023-02-02T06:06:21.472Z,7.93
2023-02-02T06:08:49.606Z,8.04
2023-02-02T06:11:19.043Z,6.81
2023-02-02T06:13:47.328Z,5.81
2023-02-02T06:16:15.640Z,6.74
2023-02-02T06:18:43.864Z,8.45
2023-02-02T06:21:12.906Z,7.76
2023-02-02T06:23:46.035Z,5.97
2023-02-02T06:26:15.191Z,6.40
2023-02-02T06:28:43.988Z,7.93
2023-02-02T06:31:12.370Z,8.47
2023-02-02T06:33:40.374Z,6.74
2023-02-02T06:36:08.307Z,6.09
2023-02-02T06:38:36.434Z,7.47
2023-02-02T06:41:04.657Z,8.35
2023-02-02T06:43:32.985Z,8.19
2023-02-02T06:46:01.145Z,6.39
2023-02-02T06:48:29.129Z,6.11
2023-02-02T06:51:00.171Z,8.00
2023-02-02T06:53:28.207Z,7.89
2023-02-02T06:55:57.904Z,5.96
2023-02-02T06:58:26.447Z,6.14
2023-02-02T07:00:54.618Z,7.93
2023-02-02T07:03:22.740Z,8.37
2023-02-02T07:05:50.815Z,7.00
2023-02-02T07:08:18.743Z,6.15
2023-02-02T07:11:12.446Z,7.73
2023-02-02T07:13:34.547Z,8.03
2023-02-02T07:16:09.778Z,6.27
2023-02-02T07:18:37.768Z,6.21
2023-02-02T07:21:06.900Z,7.99
2023-02-02T07:23:35.025Z,7.76
2023-02-02T07:26:09.200Z,6.15
2023-02-02T07:28:37.185Z,6.68
2023-02-02T07:31:21.168Z,8.11
2023-02-02T07:33:52.918Z,7.93
2023-02-02T07:36:24.281Z,6.13
2023-02-02T07:39:02.405Z,6.86
2023-02-02T07:41:30.829Z,8.18
2023-02-02T07:43:58.764Z,8.32
2023-02-02T07:46:26.827Z,6.58
2023-02-02T07:48:55.748Z,6.85
2023-02-02T07:51:24.980Z,8.05
2023-02-02T07:53:55.003Z,8.47
2023-02-02T07:56:25.940Z,7.27
2023-02-02T07:58:56.009Z,6.20
2023-02-02T08:01:26.503Z,7.22
2023-02-02T08:03:56.810Z,8.21
2023-02-02T08:06:38.902Z,8.11
2023-02-02T08:09:09.371Z,6.20
2023-02-02T08:11:38.754Z,6.83
2023-02-02T08:14:07.692Z,7.96
2023-02-02T08:16:35.968Z,8.56
2023-02-02T08:19:04.592Z,8.13
2023-02-02T08:21:34.783Z,6.42
2023-02-02T08:24:04.719Z,7.10
2023-02-02T08:26:33.151Z,7.83
2023-02-02T08:29:04.844Z,8.52
2023-02-02T08:31:41.989Z,7.29
2023-02-02T08:34:14.127Z,6.11
2023-02-02T08:36:42.305Z,7.20
2023-02-02T08:39:12.826Z,7.49
2023-02-02T08:41:40.809Z,8.14
2023-02-02T08:44:11.707Z,8.80
2023-02-02T08:46:40.941Z,7.60
2023-02-02T08:49:12.806Z,6.24
2023-02-02T08:51:41.950Z,7.58
2023-02-02T08:54:10.014Z,8.53
2023-02-02T08:56:38.278Z,7.42
2023-02-02T08:59:06.194Z,6.30
2023-02-02T09:01:35.396Z,7.24
2023-02-02T09:04:06.705Z,7.82
2023-02-02T09:06:40.426Z,8.54
2023-02-02T09:09:11.221Z,7.19
2023-02-02T09:11:39.654Z,5.93
2023-02-02T09:14:08.334Z,7.06
2023-02-02T09:16:36.702Z,7.71
2023-02-02T09:19:05.228Z,8.03
2023-02-02T09:21:37.521Z,8.23
2023-02-02T09:24:08.196Z,8.60
2023-02-02T09:26:36.516Z,7.43
2023-02-02T09:29:05.945Z,6.07
2023-02-02T09:31:36.606Z,6.97
2023-02-02T09:34:07.559Z,7.61
2023-02-02T09:36:36.817Z,7.89
2023-02-02T09:39:06.084Z,7.91
2023-02-02T09:41:37.236Z,7.87
2023-02-02T09:44:30.458Z,7.76
2023-02-02T09:47:20.393Z,7.75
2023-02-02T09:50:15.720Z,7.54
2023-02-02T09:52:59.030Z,7.73
2023-02-02T09:55:46.844Z,8.03
2023-02-02T09:58:21.023Z,8.13
2023-02-02T10:01:10.584Z,7.86
2023-02-02T10:04:07.845Z,8.36
2023-02-02T10:06:39.153Z,8.16
2023-02-02T10:09:59.142Z,6.58
2023-02-02T10:12:30.024Z,6.00
2023-02-02T10:15:12.847Z,7.28
2023-02-02T10:18:09.128Z,7.96
2023-02-02T10:20:44.913Z,8.36
2023-02-02T10:23:27.281Z,8.41
2023-02-02T10:25:58.894Z,8.50
2023-02-02T10:28:41.881Z,8.37
2023-02-02T10:32:14.955Z,8.71
2023-02-02T10:34:44.529Z,8.53
2023-02-02T10:37:27.245Z,8.32
2023-02-02T10:40:01.529Z,8.12
2023-02-02T10:42:41.517Z,8.65
2023-02-02T10:45:19.342Z,8.59
2023-02-02T10:47:47.520Z,8.70
2023-02-02T10:50:20.192Z,8.72
2023-02-02T10:53:03.428Z,8.12
2023-02-02T10:55:35.644Z,6.78
2023-02-02T10:58:12.823Z,7.85
2023-02-02T11:00:52.640Z,8.31
2023-02-02T11:08:13.570Z,8.51
2023-02-02T11:10:43.823Z,7.85
2023-02-02T11:13:19.517Z,7.60
2023-02-02T11:15:47.577Z,8.30
2023-02-02T11:19:11.083Z,8.11
2023-02-02T11:21:39.893Z,8.29
2023-02-02T11:24:22.509Z,8.90
2023-02-02T11:26:58.552Z,7.14
2023-02-02T11:29:33.737Z,7.18
2023-02-02T11:32:20.753Z,7.49
2023-02-02T11:34:48.917Z,7.92
2023-02-02T11:37:22.250Z,7.96
2023-02-02T11:39:53.064Z,8.38
2023-02-02T11:42:27.342Z,8.29
2023-02-02T11:44:59.795Z,8.35
2023-02-02T11:47:33.657Z,8.13
2023-02-02T11:50:04.697Z,6.56
2023-02-02T11:52:34.461Z,6.72
2023-02-02T11:55:14.857Z,7.92
2023-02-02T11:58:25.126Z,8.52
2023-02-02T12:01:00.099Z,8.49
2023-02-02T12:03:38.294Z,6.92
2023-02-02T12:06:32.775Z,6.27
2023-02-02T12:09:03.256Z,7.53
2023-02-02T12:11:38.702Z,8.00
2023-02-02T12:14:17.636Z,8.65
2023-02-02T12:17:06.365Z,7.94
2023-02-02T12:19:56.652Z,6.53
2023-02-02T12:22:31.533Z,7.07
2023-02-02T12:25:21.449Z,8.13
2023-02-02T12:27:59.899Z,8.17
2023-02-02T12:30:57.430Z,7.95
2023-02-02T12:33:49.918Z,8.09
2023-02-02T12:36:33.028Z,6.90
2023-02-02T12:39:42.182Z,7.54
2023-02-02T12:42:53.869Z,7.87
2023-02-02T12:45:47.999Z,8.11
2023-02-02T12:48:32.726Z,6.50
2023-02-02T12:51:18.777Z,6.78
2023-02-02T12:54:34.624Z,7.97
2023-02-02T12:57:16.210Z,7.86
2023-02-02T13:00:05.780Z,6.22
2023-02-02T13:02:42.141Z,6.67
2023-02-02T13:05:52.982Z,7.26
2023-02-02T13:08:24.001Z,7.88
2023-02-02T13:11:32.945Z,6.66
2023-02-02T13:14:16.121Z,6.11
2023-02-02T13:16:49.408Z,7.16
2023-02-02T13:19:35.926Z,7.79
2023-02-02T13:22:08.477Z,6.68
2023-02-02T13:24:41.582Z,5.87
2023-02-02T13:27:15.904Z,6.85
2023-02-02T13:29:53.880Z,7.81
2023-02-02T13:32:33.608Z,7.07
2023-02-02T13:35:17.999Z,5.90
2023-02-02T13:38:05.153Z,7.12
2023-02-02T13:40:41.468Z,7.76
2023-02-02T13:43:43.135Z,6.62
2023-02-02T13:46:33.016Z,5.95
2023-02-02T13:49:15.505Z,7.88
2023-02-02T13:52:09.858Z,7.28
2023-02-02T13:54:55.225Z,5.92
2023-02-02T13:57:38.280Z,6.57
2023-02-02T14:00:12.740Z,7.11
2023-02-02T14:02:50.037Z,6.19
2023-02-02T14:05:29.362Z,5.38
2023-02-02T14:08:03.471Z,6.13
2023-02-02T14:10:38.278Z,7.38
2023-02-02T14:13:32.473Z,6.38
2023-02-02T14:16:05.537Z,5.37
2023-02-02T14:18:49.199Z,6.25
2023-02-02T14:21:32.545Z,6.95
2023-02-02T14:24:26.945Z,6.20
2023-02-02T14:26:57.999Z,5.29
2023-02-02T14:29:30.229Z,6.35
2023-02-02T14:32:07.335Z,6.43
2023-02-02T14:34:40.182Z,5.71
2023-02-02T14:37:22.040Z,5.02
2023-02-02T14:40:06.302Z,6.26
2023-02-02T14:43:18.678Z,7.47
2023-02-02T14:45:50.154Z,6.20
2023-02-02T14:48:21.299Z,5.36
2023-02-02T14:50:49.585Z,4.84
2023-02-02T14:53:33.688Z,6.15
2023-02-02T14:56:09.200Z,6.48
2023-02-02T14:59:00.664Z,5.80
2023-02-02T15:01:33.017Z,4.94
2023-02-02T15:04:00.957Z,4.73
2023-02-02T15:06:32.761Z,5.97
2023-02-02T15:09:23.613Z,6.55
2023-02-02T15:12:06.711Z,5.49
2023-02-02T15:15:12.591Z,4.75
2023-02-02T15:17:40.974Z,6.11
2023-02-02T15:20:21.362Z,7.00
2023-02-02T15:22:58.120Z,5.87
2023-02-02T15:25:32.401Z,4.88
2023-02-02T15:28:17.904Z,4.72
2023-02-02T15:30:51.768Z,6.52
2023-02-02T15:33:35.467Z,6.52
2023-02-02T15:36:31.355Z,5.34
2023-02-02T15:39:03.225Z,4.37
2023-02-02T15:41:37.367Z,4.72
2023-02-02T15:44:26.734Z,5.75
2023-02-02T15:46:58.006Z,5.10
2023-02-02T15:49:34.840Z,4.41
2023-02-02T15:52:13.815Z,4.44
2023-02-02T15:54:57.234Z,5.95
2023-02-02T15:57:29.650Z,5.89
2023-02-02T15:59:58.789Z,4.83
2023-02-02T16:02:42.886Z,4.13
2023-02-02T16:05:43.870Z,5.08
2023-02-02T16:08:19.920Z,6.63
2023-02-02T16:10:50.835Z,5.60
2023-02-02T16:13:26.563Z,4.73
2023-02-02T16:15:59.668Z,4.63
2023-02-02T16:18:27.778Z,6.14
2023-02-02T16:20:57.777Z,5.77
2023-02-02T16:23:33.104Z,5.05
2023-02-02T16:26:05.083Z,4.27
2023-02-02T16:28:34.592Z,4.59
2023-02-02T16:31:03.520Z,5.90
2023-02-02T16:33:41.423Z,5.50
2023-02-02T16:36:35.788Z,4.51
2023-02-02T16:39:16.050Z,4.34
2023-02-02T16:41:47.465Z,5.80
2023-02-02T16:44:39.442Z,5.40
2023-02-02T16:47:28.483Z,4.49
2023-02-02T16:50:08.319Z,4.18
2023-02-02T16:52:48.588Z,5.57
2023-02-02T16:55:18.367Z,5.41
2023-02-02T16:57:49.300Z,4.44
2023-02-02T17:00:27.118Z,3.94
2023-02-02T17:03:04.633Z,4.55
2023-02-02T17:05:36.159Z,5.88
2023-02-02T17:08:07.911Z,5.35
2023-02-02T17:10:43.271Z,4.35
2023-02-02T17:13:36.620Z,3.92
2023-02-02T17:16:04.968Z,5.50
2023-02-02T17:18:33.212Z,6.07
2023-02-02T17:21:07.615Z,5.12
2023-02-02T17:23:36.796Z,4.18
2023-02-02T17:26:08.424Z,3.55
2023-02-02T17:28:39.901Z,3.11
2023-02-02T17:31:10.962Z,3.48
2023-02-02T17:33:39.715Z,5.30
2023-02-02T17:36:08.519Z,5.35
2023-02-02T17:38:36.503Z,4.40
2023-02-02T17:41:05.515Z,3.65
2023-02-02T17:43:35.458Z,3.26
2023-02-02T17:46:03.961Z,2.97
2023-02-02T17:48:32.160Z,2.72
2023-02-02T17:51:03.265Z,2.57
2023-02-02T17:53:33.500Z,2.47
2023-02-02T17:56:01.749Z,2.39
2023-02-02T17:58:29.755Z,2.31
2023-02-02T18:00:59.318Z,2.87
2023-02-02T18:03:34.498Z,4.83
2023-02-02T18:06:03.915Z,4.84
2023-02-02T18:08:33.366Z,4.12
2023-02-02T18:11:01.884Z,3.54
2023-02-02T18:13:29.902Z,3.09
2023-02-02T18:15:59.975Z,2.75
2023-02-02T18:18:29.973Z,2.53
2023-02-02T18:20:59.097Z,2.36
2023-02-02T18:23:30.436Z,2.23
2023-02-02T18:26:18.370Z,2.13
2023-02-02T18:28:50.277Z,2.08
2023-02-02T18:31:21.566Z,2.41
2023-02-02T18:33:50.168Z,4.67
2023-02-02T18:36:21.013Z,5.87
2023-02-02T18:38:51.332Z,5.05
2023-02-02T18:41:21.589Z,4.18
2023-02-02T18:43:52.992Z,3.41
2023-02-02T18:46:22.781Z,2.85
2023-02-02T18:48:50.959Z,2.51
2023-02-02T18:51:19.438Z,2.98
2023-02-02T18:53:49.515Z,4.81
2023-02-02T18:56:18.154Z,4.89
2023-02-02T18:58:46.558Z,3.75
2023-02-02T19:01:20.043Z,3.05
2023-02-02T19:03:50.207Z,2.72
2023-02-02T19:06:37.939Z,2.91
2023-02-02T19:09:07.173Z,5.23
2023-02-02T19:11:43.118Z,5.07
2023-02-02T19:14:17.718Z,4.03
2023-02-02T19:16:48.419Z,3.34
2023-02-02T19:19:30.380Z,4.12
2023-02-02T19:22:08.126Z,5.27
2023-02-02T19:24:40.929Z,4.44
2023-02-02T19:27:21.688Z,3.67
2023-02-02T19:29:52.914Z,3.29
2023-02-02T19:32:27.134Z,4.95
2023-02-02T19:36:19.190Z,5.75
2023-02-02T19:40:29.007Z,3.98
2023-02-02T19:43:29.080Z,3.15
2023-02-02T19:46:00.442Z,4.22
2023-02-02T19:48:36.669Z,5.85
2023-02-02T19:51:29.552Z,4.88
2023-02-02T19:54:00.983Z,3.74
2023-02-02T19:56:36.370Z,3.49
2023-02-02T19:59:20.402Z,5.22
2023-02-02T20:01:50.755Z,6.28
2023-02-02T20:04:20.312Z,4.94
2023-02-02T20:06:58.733Z,3.69
2023-02-02T20:09:35.629Z,3.18
2023-02-02T20:12:22.736Z,4.86
2023-02-02T20:14:52.600Z,5.18
2023-02-02T20:21:58.251Z,3.22
2023-02-02T20:24:37.339Z,4.83
2023-02-02T20:27:16.552Z,5.50
2023-02-02T20:29:47.101Z,4.35
2023-02-02T20:32:22.014Z,3.45
2023-02-02T20:34:51.149Z,4.61
2023-02-02T20:37:29.882Z,5.41
2023-02-02T20:40:01.597Z,4.72
2023-02-02T20:42:30.292Z,3.70
2023-02-02T20:44:58.443Z,4.44
2023-02-02T20:47:26.486Z,5.45
2023-02-02T20:49:54.533Z,4.97
2023-02-02T20:52:23.871Z,3.91
2023-02-02T20:54:53.112Z,4.74
2023-02-02T20:57:21.147Z,6.23
2023-02-02T20:59:51.283Z,6.30
2023-02-02T21:02:19.781Z,4.62
2023-02-02T21:04:49.262Z,4.90
2023-02-02T21:07:20.902Z,6.11
2023-02-02T21:09:51.053Z,6.77
2023-02-02T21:12:21.244Z,5.33
2023-02-02T21:14:49.241Z,4.50
2023-02-02T21:17:17.357Z,5.42
2023-02-02T21:19:45.481Z,6.38
2023-02-02T21:22:13.513Z,5.42
2023-02-02T21:24:42.719Z,4.18
2023-02-02T21:27:11.098Z,3.79
2023-02-02T21:29:39.184Z,5.29
2023-02-02T21:32:08.177Z,6.77
2023-02-02T21:34:37.958Z,5.92
2023-02-02T21:37:15.073Z,4.63
2023-02-02T21:39:49.688Z,3.83
2023-02-02T21:42:19.677Z,5.12
2023-02-02T21:44:58.123Z,6.46
2023-02-02T21:47:28.101Z,5.35
2023-02-02T21:49:59.311Z,4.22
2023-02-02T21:52:33.099Z,5.40
2023-02-02T21:55:33.631Z,5.84
2023-02-02T21:58:11.658Z,4.61
2023-02-02T22:00:39.826Z,3.57
2023-02-02T22:03:28.218Z,4.15
2023-02-02T22:06:20.853Z,5.71
2023-02-02T22:08:49.793Z,5.47
2023-02-02T22:11:29.806Z,4.35
2023-02-02T22:14:13.673Z,4.01
2023-02-02T22:16:48.739Z,5.56
2023-02-02T22:19:39.871Z,5.78
2023-02-02T22:22:15.742Z,4.47
2023-02-02T22:24:53.461Z,3.84
2023-02-02T22:27:24.708Z,5.44
2023-02-02T22:30:00.807Z,6.42
2023-02-02T22:32:28.963Z,6.26
2023-02-02T22:34:57.054Z,4.73
2023-02-02T22:37:24.991Z,5.11
2023-02-02T22:39:53.052Z,5.97
2023-02-02T22:42:21.035Z,5.91
2023-02-02T22:44:48.975Z,4.72
2023-02-02T22:47:16.929Z,4.08
2023-02-02T22:49:44.981Z,5.37
2023-02-02T22:52:12.936Z,6.35
2023-02-02T22:54:40.974Z,5.61
2023-02-02T22:57:08.951Z,4.20
2023-02-02T22:59:37.240Z,4.15
2023-02-02T23:02:05.190Z,5.79
2023-02-02T23:04:33.310Z,6.88
2023-02-02T23:07:01.358Z,5.81
2023-02-02T23:09:29.363Z,4.49
2023-02-02T23:11:57.478Z,5.38
2023-02-02T23:14:25.470Z,6.62
2023-02-02T23:16:53.384Z,6.28
2023-02-02T23:19:21.420Z,4.79
2023-02-02T23:21:49.360Z,4.80
2023-02-02T23:24:17.391Z,6.46
2023-02-02T23:26:45.699Z,5.74
2023-02-02T23:29:13.663Z,4.45
2023-02-02T23:31:41.662Z,5.12
2023-02-02T23:34:09.633Z,5.94
2023-02-02T23:36:37.821Z,6.40
2023-02-02T23:39:06.484Z,5.87
2023-02-02T23:41:34.527Z,4.86
2023-02-02T23:44:02.595Z,3.71
2023-02-02T23:46:31.402Z,3.36
2023-02-02T23:49:00.844Z,4.74
2023-02-02T23:51:29.364Z,6.19
2023-02-02T23:53:58.516Z,6.33
2023-02-02T23:56:27.520Z,5.21
2023-02-02T23:58:56.086Z,3.97
